sensor_id;sensor_type;location;lat;lon;timestamp;temperature;humidity
34815;DHT22;21030;53.912;15.214;2023-05-29T00:00:48;35.90;21.70
34815;DHT22;21030;53.912;15.214;2023-05-29T00:03:15;35.90;21.70
34815;DHT22;21030;53.912;15.214;2023-05-29T00:05:45;35.90;21.70
34815;DHT22;21030;53.912;15.214;2023-05-29T00:08:13;35.80;21.80
34815;DHT22;21030;53.912;15.214;2023-05-29T00:10:41;35.60;21.90
34815;DHT22;21030;53.912;15.214;2023-05-29T00:13:10;35.60;22.10
34815;DHT22;21030;53.912;15.214;2023-05-29T00:15:39;35.40;22.10
34815;DHT22;21030;53.912;15.214;2023-05-29T00:18:08;35.50;21.90
34815;DHT22;21030;53.912;15.214;2023-05-29T00:20:37;35.60;21.70
34815;DHT22;21030;53.912;15.214;2023-05-29T00:23:05;35.60;21.80
34815;DHT22;21030;53.912;15.214;2023-05-29T00:25:34;35.60;21.90
34815;DHT22;21030;53.912;15.214;2023-05-29T00:28:02;35.60;22.10
34815;DHT22;21030;53.912;15.214;2023-05-29T00:30:31;35.50;22.10
34815;DHT22;21030;53.912;15.214;2023-05-29T00:32:59;35.50;22.00
34815;DHT22;21030;53.912;15.214;2023-05-29T00:35:28;35.40;22.10
34815;DHT22;21030;53.912;15.214;2023-05-29T00:37:57;35.40;22.20
34815;DHT22;21030;53.912;15.214;2023-05-29T00:40:25;35.30;22.30
34815;DHT22;21030;53.912;15.214;2023-05-29T00:42:54;35.40;22.30
34815;DHT22;21030;53.912;15.214;2023-05-29T00:45:22;35.50;21.90
34815;DHT22;21030;53.912;15.214;2023-05-29T00:47:51;35.50;21.70
34815;DHT22;21030;53.912;15.214;2023-05-29T00:50:21;35.50;21.60
34815;DHT22;21030;53.912;15.214;2023-05-29T00:52:51;35.50;21.70
34815;DHT22;21030;53.912;15.214;2023-05-29T00:55:21;35.50;21.70
34815;DHT22;21030;53.912;15.214;2023-05-29T00:57:49;35.60;22.20
34815;DHT22;21030;53.912;15.214;2023-05-29T01:00:18;35.60;22.70
34815;DHT22;21030;53.912;15.214;2023-05-29T01:02:49;35.70;21.80
34815;DHT22;21030;53.912;15.214;2023-05-29T01:05:21;35.70;21.50
34815;DHT22;21030;53.912;15.214;2023-05-29T01:07:49;35.50;21.60
34815;DHT22;21030;53.912;15.214;2023-05-29T01:10:19;35.30;21.70
34815;DHT22;21030;53.912;15.214;2023-05-29T01:23:51;35.50;21.50
34815;DHT22;21030;53.912;15.214;2023-05-29T01:28:55;35.50;21.50
34815;DHT22;21030;53.912;15.214;2023-05-29T01:31:26;35.50;21.60
34815;DHT22;21030;53.912;15.214;2023-05-29T01:33:59;35.50;21.60
34815;DHT22;21030;53.912;15.214;2023-05-29T01:36:28;35.50;21.60
34815;DHT22;21030;53.912;15.214;2023-05-29T01:38:57;35.50;21.60
34815;DHT22;21030;53.912;15.214;2023-05-29T01:41:26;35.30;21.60
34815;DHT22;21030;53.912;15.214;2023-05-29T01:43:54;35.20;21.70
34815;DHT22;21030;53.912;15.214;2023-05-29T01:46:23;35.30;21.40
34815;DHT22;21030;53.912;15.214;2023-05-29T01:48:52;35.40;21.40
34815;DHT22;21030;53.912;15.214;2023-05-29T01:51:20;35.30;21.20
34815;DHT22;21030;53.912;15.214;2023-05-29T01:53:47;35.30;21.30
34815;DHT22;21030;53.912;15.214;2023-05-29T01:56:14;35.30;21.80
34815;DHT22;21030;53.912;15.214;2023-05-29T01:58:42;35.20;21.80
34815;DHT22;21030;53.912;15.214;2023-05-29T02:01:10;35.10;21.90
34815;DHT22;21030;53.912;15.214;2023-05-29T02:03:37;35.00;21.70
34815;DHT22;21030;53.912;15.214;2023-05-29T02:06:04;34.80;22.00
34815;DHT22;21030;53.912;15.214;2023-05-29T02:08:31;34.70;22.20
34815;DHT22;21030;53.912;15.214;2023-05-29T02:10:58;34.60;22.60
34815;DHT22;21030;53.912;15.214;2023-05-29T02:13:25;34.60;23.20
34815;DHT22;21030;53.912;15.214;2023-05-29T02:15:52;34.70;22.80
34815;DHT22;21030;53.912;15.214;2023-05-29T02:18:19;34.70;22.50
34815;DHT22;21030;53.912;15.214;2023-05-29T02:20:47;34.60;22.70
34815;DHT22;21030;53.912;15.214;2023-05-29T02:23:14;34.50;22.70
34815;DHT22;21030;53.912;15.214;2023-05-29T02:25:42;34.40;22.90
34815;DHT22;21030;53.912;15.214;2023-05-29T02:28:09;34.50;23.00
34815;DHT22;21030;53.912;15.214;2023-05-29T02:30:37;34.60;22.80
34815;DHT22;21030;53.912;15.214;2023-05-29T02:33:04;34.80;22.70
34815;DHT22;21030;53.912;15.214;2023-05-29T02:35:31;34.70;22.90
34815;DHT22;21030;53.912;15.214;2023-05-29T02:37:58;34.70;23.30
34815;DHT22;21030;53.912;15.214;2023-05-29T02:40:25;34.70;23.10
34815;DHT22;21030;53.912;15.214;2023-05-29T02:42:52;34.70;23.20
34815;DHT22;21030;53.912;15.214;2023-05-29T02:45:20;34.70;23.10
34815;DHT22;21030;53.912;15.214;2023-05-29T02:47:47;34.90;22.90
34815;DHT22;21030;53.912;15.214;2023-05-29T02:50:14;34.90;23.10
34815;DHT22;21030;53.912;15.214;2023-05-29T02:52:41;34.90;22.30
34815;DHT22;21030;53.912;15.214;2023-05-29T02:55:08;34.90;22.30
34815;DHT22;21030;53.912;15.214;2023-05-29T02:57:35;35.10;22.00
34815;DHT22;21030;53.912;15.214;2023-05-29T03:00:03;35.20;22.00
34815;DHT22;21030;53.912;15.214;2023-05-29T03:02:34;35.40;21.90
34815;DHT22;21030;53.912;15.214;2023-05-29T03:05:02;35.40;21.90
34815;DHT22;21030;53.912;15.214;2023-05-29T03:07:29;35.30;21.80
34815;DHT22;21030;53.912;15.214;2023-05-29T03:09:56;35.50;21.80
34815;DHT22;21030;53.912;15.214;2023-05-29T03:12:25;35.50;21.60
34815;DHT22;21030;53.912;15.214;2023-05-29T03:14:54;35.40;21.80
34815;DHT22;21030;53.912;15.214;2023-05-29T03:17:23;35.40;21.90
34815;DHT22;21030;53.912;15.214;2023-05-29T03:19:50;35.50;21.70
34815;DHT22;21030;53.912;15.214;2023-05-29T03:22:18;35.60;21.50
34815;DHT22;21030;53.912;15.214;2023-05-29T03:24:45;35.60;21.40
34815;DHT22;21030;53.912;15.214;2023-05-29T03:27:12;35.60;21.60
34815;DHT22;21030;53.912;15.214;2023-05-29T03:29:39;35.60;21.60
34815;DHT22;21030;53.912;15.214;2023-05-29T03:32:06;35.70;21.60
34815;DHT22;21030;53.912;15.214;2023-05-29T03:34:33;35.80;21.50
34815;DHT22;21030;53.912;15.214;2023-05-29T03:37:01;35.80;21.50
34815;DHT22;21030;53.912;15.214;2023-05-29T03:39:28;35.80;21.70
34815;DHT22;21030;53.912;15.214;2023-05-29T03:41:56;35.70;21.60
34815;DHT22;21030;53.912;15.214;2023-05-29T03:44:23;34.80;21.80
34815;DHT22;21030;53.912;15.214;2023-05-29T03:46:51;34.80;22.30
34815;DHT22;21030;53.912;15.214;2023-05-29T03:49:18;35.00;22.10
34815;DHT22;21030;53.912;15.214;2023-05-29T03:51:45;35.30;22.00
34815;DHT22;21030;53.912;15.214;2023-05-29T03:54:12;35.40;21.90
34815;DHT22;21030;53.912;15.214;2023-05-29T03:56:39;35.50;21.90
34815;DHT22;21030;53.912;15.214;2023-05-29T03:59:06;35.50;22.20
34815;DHT22;21030;53.912;15.214;2023-05-29T04:01:33;35.70;22.10
34815;DHT22;21030;53.912;15.214;2023-05-29T04:04:01;35.80;22.00
34815;DHT22;21030;53.912;15.214;2023-05-29T04:06:28;35.80;22.00
34815;DHT22;21030;53.912;15.214;2023-05-29T04:08:56;35.70;22.10
34815;DHT22;21030;53.912;15.214;2023-05-29T04:11:23;35.90;22.20
34815;DHT22;21030;53.912;15.214;2023-05-29T04:13:50;36.10;22.30
34815;DHT22;21030;53.912;15.214;2023-05-29T04:16:17;36.30;22.20
34815;DHT22;21030;53.912;15.214;2023-05-29T04:18:44;36.60;22.10
34815;DHT22;21030;53.912;15.214;2023-05-29T04:21:11;36.70;21.90
34815;DHT22;21030;53.912;15.214;2023-05-29T04:23:38;36.90;21.90
34815;DHT22;21030;53.912;15.214;2023-05-29T04:26:05;37.00;22.00
34815;DHT22;21030;53.912;15.214;2023-05-29T04:28:32;36.80;22.20
34815;DHT22;21030;53.912;15.214;2023-05-29T04:31:00;37.10;22.20
34815;DHT22;21030;53.912;15.214;2023-05-29T04:33:27;37.20;21.90
34815;DHT22;21030;53.912;15.214;2023-05-29T04:35:56;37.30;22.00
34815;DHT22;21030;53.912;15.214;2023-05-29T04:38:23;37.50;21.90
34815;DHT22;21030;53.912;15.214;2023-05-29T04:40:52;37.60;22.00
34815;DHT22;21030;53.912;15.214;2023-05-29T04:43:25;37.60;22.20
34815;DHT22;21030;53.912;15.214;2023-05-29T04:45:55;37.40;22.40
34815;DHT22;21030;53.912;15.214;2023-05-29T04:48:22;37.40;22.80
34815;DHT22;21030;53.912;15.214;2023-05-29T04:50:49;37.40;23.30
34815;DHT22;21030;53.912;15.214;2023-05-29T04:53:16;37.30;23.60
34815;DHT22;21030;53.912;15.214;2023-05-29T04:55:43;37.60;23.70
34815;DHT22;21030;53.912;15.214;2023-05-29T04:58:10;37.90;23.60
34815;DHT22;21030;53.912;15.214;2023-05-29T05:00:39;38.20;23.60
34815;DHT22;21030;53.912;15.214;2023-05-29T05:03:06;38.30;23.50
34815;DHT22;21030;53.912;15.214;2023-05-29T05:05:33;38.60;23.30
34815;DHT22;21030;53.912;15.214;2023-05-29T05:08:00;38.80;22.90
34815;DHT22;21030;53.912;15.214;2023-05-29T05:10:27;39.00;22.70
34815;DHT22;21030;53.912;15.214;2023-05-29T05:12:54;39.20;22.60
34815;DHT22;21030;53.912;15.214;2023-05-29T05:15:21;39.30;22.40
34815;DHT22;21030;53.912;15.214;2023-05-29T05:17:48;39.30;22.40
34815;DHT22;21030;53.912;15.214;2023-05-29T05:20:16;39.30;22.30
34815;DHT22;21030;53.912;15.214;2023-05-29T05:22:43;39.40;22.40
34815;DHT22;21030;53.912;15.214;2023-05-29T05:25:10;39.30;22.40
34815;DHT22;21030;53.912;15.214;2023-05-29T05:27:38;39.30;22.20
34815;DHT22;21030;53.912;15.214;2023-05-29T05:30:05;39.60;22.30
34815;DHT22;21030;53.912;15.214;2023-05-29T05:32:33;39.70;22.20
34815;DHT22;21030;53.912;15.214;2023-05-29T05:35:01;39.70;22.00
34815;DHT22;21030;53.912;15.214;2023-05-29T05:37:30;39.80;22.00
34815;DHT22;21030;53.912;15.214;2023-05-29T05:39:57;39.80;21.60
34815;DHT22;21030;53.912;15.214;2023-05-29T05:42:26;39.90;21.80
34815;DHT22;21030;53.912;15.214;2023-05-29T05:44:54;39.80;21.60
34815;DHT22;21030;53.912;15.214;2023-05-29T05:47:21;39.80;21.20
34815;DHT22;21030;53.912;15.214;2023-05-29T05:49:48;40.00;21.20
34815;DHT22;21030;53.912;15.214;2023-05-29T05:52:17;39.90;21.00
34815;DHT22;21030;53.912;15.214;2023-05-29T05:54:44;39.80;20.70
34815;DHT22;21030;53.912;15.214;2023-05-29T05:57:11;39.80;20.80
34815;DHT22;21030;53.912;15.214;2023-05-29T05:59:38;39.50;20.50
34815;DHT22;21030;53.912;15.214;2023-05-29T06:02:06;39.40;20.60
34815;DHT22;21030;53.912;15.214;2023-05-29T06:04:35;39.70;20.90
34815;DHT22;21030;53.912;15.214;2023-05-29T06:07:02;40.10;20.90
34815;DHT22;21030;53.912;15.214;2023-05-29T06:09:30;40.10;20.50
34815;DHT22;21030;53.912;15.214;2023-05-29T06:11:57;40.10;20.40
34815;DHT22;21030;53.912;15.214;2023-05-29T06:14:24;40.10;20.30
34815;DHT22;21030;53.912;15.214;2023-05-29T06:16:51;40.30;20.30
34815;DHT22;21030;53.912;15.214;2023-05-29T06:19:18;40.40;20.10
34815;DHT22;21030;53.912;15.214;2023-05-29T06:21:46;40.30;19.90
34815;DHT22;21030;53.912;15.214;2023-05-29T06:24:13;40.80;19.70
34815;DHT22;21030;53.912;15.214;2023-05-29T06:26:40;41.20;19.60
34815;DHT22;21030;53.912;15.214;2023-05-29T06:29:08;41.40;19.40
34815;DHT22;21030;53.912;15.214;2023-05-29T06:31:35;41.30;19.20
34815;DHT22;21030;53.912;15.214;2023-05-29T06:34:02;41.60;19.40
34815;DHT22;21030;53.912;15.214;2023-05-29T06:36:29;41.70;19.30
34815;DHT22;21030;53.912;15.214;2023-05-29T06:38:56;42.00;19.20
34815;DHT22;21030;53.912;15.214;2023-05-29T06:41:23;42.20;19.00
34815;DHT22;21030;53.912;15.214;2023-05-29T06:43:50;42.20;19.00
34815;DHT22;21030;53.912;15.214;2023-05-29T06:46:18;42.30;19.10
34815;DHT22;21030;53.912;15.214;2023-05-29T06:48:45;42.80;18.90
34815;DHT22;21030;53.912;15.214;2023-05-29T06:51:12;42.90;18.60
34815;DHT22;21030;53.912;15.214;2023-05-29T06:53:39;43.20;18.50
34815;DHT22;21030;53.912;15.214;2023-05-29T06:56:07;43.10;18.60
34815;DHT22;21030;53.912;15.214;2023-05-29T06:58:34;43.10;18.40
34815;DHT22;21030;53.912;15.214;2023-05-29T07:01:01;43.30;18.30
34815;DHT22;21030;53.912;15.214;2023-05-29T07:03:33;43.40;18.30
34815;DHT22;21030;53.912;15.214;2023-05-29T07:06:00;43.10;18.10
34815;DHT22;21030;53.912;15.214;2023-05-29T07:08:27;43.00;18.10
34815;DHT22;21030;53.912;15.214;2023-05-29T07:10:55;43.40;18.10
34815;DHT22;21030;53.912;15.214;2023-05-29T07:13:25;43.80;18.10
34815;DHT22;21030;53.912;15.214;2023-05-29T07:15:53;43.70;17.90
34815;DHT22;21030;53.912;15.214;2023-05-29T07:18:20;43.70;17.80
34815;DHT22;21030;53.912;15.214;2023-05-29T07:20:47;43.70;17.70
34815;DHT22;21030;53.912;15.214;2023-05-29T07:23:14;43.90;17.40
34815;DHT22;21030;53.912;15.214;2023-05-29T07:25:41;44.00;17.50
34815;DHT22;21030;53.912;15.214;2023-05-29T07:28:08;44.20;17.40
34815;DHT22;21030;53.912;15.214;2023-05-29T07:30:47;44.20;17.40
34815;DHT22;21030;53.912;15.214;2023-05-29T07:33:15;44.40;17.20
34815;DHT22;21030;53.912;15.214;2023-05-29T07:35:42;44.90;17.20
34815;DHT22;21030;53.912;15.214;2023-05-29T07:38:09;44.90;17.20
34815;DHT22;21030;53.912;15.214;2023-05-29T07:40:36;45.20;17.00
34815;DHT22;21030;53.912;15.214;2023-05-29T07:43:06;45.50;17.10
34815;DHT22;21030;53.912;15.214;2023-05-29T07:45:33;45.50;16.70
34815;DHT22;21030;53.912;15.214;2023-05-29T07:48:00;45.50;16.90
34815;DHT22;21030;53.912;15.214;2023-05-29T07:50:27;45.30;16.70
34815;DHT22;21030;53.912;15.214;2023-05-29T07:52:54;44.90;16.70
34815;DHT22;21030;53.912;15.214;2023-05-29T07:55:22;44.50;16.90
34815;DHT22;21030;53.912;15.214;2023-05-29T07:57:50;44.00;17.20
34815;DHT22;21030;53.912;15.214;2023-05-29T08:00:17;43.80;17.20
34815;DHT22;21030;53.912;15.214;2023-05-29T08:02:44;43.80;17.20
34815;DHT22;21030;53.912;15.214;2023-05-29T08:05:11;43.70;17.30
34815;DHT22;21030;53.912;15.214;2023-05-29T08:07:39;43.60;17.20
34815;DHT22;21030;53.912;15.214;2023-05-29T08:10:08;43.60;17.20
34815;DHT22;21030;53.912;15.214;2023-05-29T08:12:35;43.70;17.50
34815;DHT22;21030;53.912;15.214;2023-05-29T08:15:03;43.40;17.30
34815;DHT22;21030;53.912;15.214;2023-05-29T08:17:30;43.60;17.20
34815;DHT22;21030;53.912;15.214;2023-05-29T08:19:57;43.80;17.20
34815;DHT22;21030;53.912;15.214;2023-05-29T08:22:29;44.30;17.20
34815;DHT22;21030;53.912;15.214;2023-05-29T08:24:56;44.90;16.90
34815;DHT22;21030;53.912;15.214;2023-05-29T08:27:23;45.50;16.60
34815;DHT22;21030;53.912;15.214;2023-05-29T08:29:50;45.90;16.40
34815;DHT22;21030;53.912;15.214;2023-05-29T08:32:17;46.50;16.10
34815;DHT22;21030;53.912;15.214;2023-05-29T08:34:44;46.30;15.80
34815;DHT22;21030;53.912;15.214;2023-05-29T08:37:13;46.80;16.00
34815;DHT22;21030;53.912;15.214;2023-05-29T08:39:40;47.40;15.60
34815;DHT22;21030;53.912;15.214;2023-05-29T08:42:12;47.40;15.30
34815;DHT22;21030;53.912;15.214;2023-05-29T08:44:40;48.30;15.80
34815;DHT22;21030;53.912;15.214;2023-05-29T08:47:07;47.70;15.10
34815;DHT22;21030;53.912;15.214;2023-05-29T08:49:43;48.00;15.00
34815;DHT22;21030;53.912;15.214;2023-05-29T08:52:16;47.50;15.10
34815;DHT22;21030;53.912;15.214;2023-05-29T08:54:44;47.00;15.60
34815;DHT22;21030;53.912;15.214;2023-05-29T08:57:12;46.90;15.60
34815;DHT22;21030;53.912;15.214;2023-05-29T08:59:43;46.80;15.30
34815;DHT22;21030;53.912;15.214;2023-05-29T09:02:12;46.80;15.40
34815;DHT22;21030;53.912;15.214;2023-05-29T09:04:41;47.10;15.40
34815;DHT22;21030;53.912;15.214;2023-05-29T09:07:08;47.60;15.40
34815;DHT22;21030;53.912;15.214;2023-05-29T09:09:36;48.10;15.40
34815;DHT22;21030;53.912;15.214;2023-05-29T09:12:04;48.60;15.00
34815;DHT22;21030;53.912;15.214;2023-05-29T09:14:36;48.60;14.80
34815;DHT22;21030;53.912;15.214;2023-05-29T09:17:04;48.30;15.00
34815;DHT22;21030;53.912;15.214;2023-05-29T09:19:33;47.70;14.60
34815;DHT22;21030;53.912;15.214;2023-05-29T09:22:05;47.70;14.80
34815;DHT22;21030;53.912;15.214;2023-05-29T09:24:33;47.10;14.90
34815;DHT22;21030;53.912;15.214;2023-05-29T09:27:01;47.00;16.10
34815;DHT22;21030;53.912;15.214;2023-05-29T09:29:31;46.80;15.60
34815;DHT22;21030;53.912;15.214;2023-05-29T09:32:00;46.80;15.90
34815;DHT22;21030;53.912;15.214;2023-05-29T09:34:31;46.60;15.60
34815;DHT22;21030;53.912;15.214;2023-05-29T09:37:06;45.20;15.60
34815;DHT22;21030;53.912;15.214;2023-05-29T09:42:15;44.60;16.50
34815;DHT22;21030;53.912;15.214;2023-05-29T09:44:45;45.10;16.50
34815;DHT22;21030;53.912;15.214;2023-05-29T09:47:19;45.60;16.20
34815;DHT22;21030;53.912;15.214;2023-05-29T09:49:46;45.90;15.90
34815;DHT22;21030;53.912;15.214;2023-05-29T09:52:14;46.00;15.90
34815;DHT22;21030;53.912;15.214;2023-05-29T09:54:43;46.00;15.50
34815;DHT22;21030;53.912;15.214;2023-05-29T09:57:14;45.50;15.70
34815;DHT22;21030;53.912;15.214;2023-05-29T09:59:46;45.90;15.60
34815;DHT22;21030;53.912;15.214;2023-05-29T10:02:18;45.50;16.00
34815;DHT22;21030;53.912;15.214;2023-05-29T10:04:46;46.00;16.20
34815;DHT22;21030;53.912;15.214;2023-05-29T10:07:28;46.10;16.10
34815;DHT22;21030;53.912;15.214;2023-05-29T10:10:02;45.80;16.10
34815;DHT22;21030;53.912;15.214;2023-05-29T10:12:31;46.50;15.90
34815;DHT22;21030;53.912;15.214;2023-05-29T10:15:02;47.10;15.30
34815;DHT22;21030;53.912;15.214;2023-05-29T10:17:33;46.90;15.20
34815;DHT22;21030;53.912;15.214;2023-05-29T10:20:04;46.50;15.40
34815;DHT22;21030;53.912;15.214;2023-05-29T10:22:34;46.40;15.80
34815;DHT22;21030;53.912;15.214;2023-05-29T10:25:03;45.50;15.60
34815;DHT22;21030;53.912;15.214;2023-05-29T10:27:31;45.50;16.10
34815;DHT22;21030;53.912;15.214;2023-05-29T10:35:48;45.90;16.10
34815;DHT22;21030;53.912;15.214;2023-05-29T10:38:20;45.80;15.70
34815;DHT22;21030;53.912;15.214;2023-05-29T10:40:48;45.60;16.90
34815;DHT22;21030;53.912;15.214;2023-05-29T10:43:34;45.90;16.10
34815;DHT22;21030;53.912;15.214;2023-05-29T10:46:01;46.10;15.90
34815;DHT22;21030;53.912;15.214;2023-05-29T10:48:40;46.90;15.80
34815;DHT22;21030;53.912;15.214;2023-05-29T10:51:08;47.60;15.40
34815;DHT22;21030;53.912;15.214;2023-05-29T10:53:35;48.00;15.30
34815;DHT22;21030;53.912;15.214;2023-05-29T10:56:15;47.40;15.00
34815;DHT22;21030;53.912;15.214;2023-05-29T10:58:52;47.40;15.60
34815;DHT22;21030;53.912;15.214;2023-05-29T11:01:23;47.20;15.30
34815;DHT22;21030;53.912;15.214;2023-05-29T11:06:42;45.70;15.80
34815;DHT22;21030;53.912;15.214;2023-05-29T11:14:48;45.60;16.40
34815;DHT22;21030;53.912;15.214;2023-05-29T11:20:30;46.50;15.40
34815;DHT22;21030;53.912;15.214;2023-05-29T11:23:05;46.10;15.10
34815;DHT22;21030;53.912;15.214;2023-05-29T11:25:36;47.20;15.30
34815;DHT22;21030;53.912;15.214;2023-05-29T11:28:05;47.70;15.80
34815;DHT22;21030;53.912;15.214;2023-05-29T11:30:47;47.20;14.80
34815;DHT22;21030;53.912;15.214;2023-05-29T11:33:25;47.50;14.70
34815;DHT22;21030;53.912;15.214;2023-05-29T11:35:57;46.80;14.80
34815;DHT22;21030;53.912;15.214;2023-05-29T11:38:25;46.50;15.00
34815;DHT22;21030;53.912;15.214;2023-05-29T11:40:54;45.80;15.30
34815;DHT22;21030;53.912;15.214;2023-05-29T11:43:22;45.80;15.80
34815;DHT22;21030;53.912;15.214;2023-05-29T11:45:49;46.10;15.60
34815;DHT22;21030;53.912;15.214;2023-05-29T11:48:16;45.90;16.20
34815;DHT22;21030;53.912;15.214;2023-05-29T11:50:44;45.40;15.30
34815;DHT22;21030;53.912;15.214;2023-05-29T11:53:11;45.20;15.90
34815;DHT22;21030;53.912;15.214;2023-05-29T11:55:38;45.60;15.90
34815;DHT22;21030;53.912;15.214;2023-05-29T11:58:06;45.70;15.60
34815;DHT22;21030;53.912;15.214;2023-05-29T12:00:38;45.90;15.60
34815;DHT22;21030;53.912;15.214;2023-05-29T12:03:06;45.70;15.60
34815;DHT22;21030;53.912;15.214;2023-05-29T12:05:48;45.90;15.70
34815;DHT22;21030;53.912;15.214;2023-05-29T12:08:23;46.40;15.50
34815;DHT22;21030;53.912;15.214;2023-05-29T12:10:52;45.80;15.40
34815;DHT22;21030;53.912;15.214;2023-05-29T12:13:22;46.30;15.60
34815;DHT22;21030;53.912;15.214;2023-05-29T12:15:57;46.70;15.50
34815;DHT22;21030;53.912;15.214;2023-05-29T12:18:29;47.20;15.30
34815;DHT22;21030;53.912;15.214;2023-05-29T12:20:58;47.30;15.70
34815;DHT22;21030;53.912;15.214;2023-05-29T12:23:25;46.90;15.70
34815;DHT22;21030;53.912;15.214;2023-05-29T12:25:52;45.90;15.50
34815;DHT22;21030;53.912;15.214;2023-05-29T12:28:21;46.30;15.90
34815;DHT22;21030;53.912;15.214;2023-05-29T12:30:49;46.70;16.70
34815;DHT22;21030;53.912;15.214;2023-05-29T12:33:29;46.60;16.00
34815;DHT22;21030;53.912;15.214;2023-05-29T12:36:06;47.20;16.00
34815;DHT22;21030;53.912;15.214;2023-05-29T12:38:49;47.40;15.60
34815;DHT22;21030;53.912;15.214;2023-05-29T12:41:27;47.30;15.60
34815;DHT22;21030;53.912;15.214;2023-05-29T12:44:00;46.90;15.60
34815;DHT22;21030;53.912;15.214;2023-05-29T12:46:40;47.00;15.80
34815;DHT22;21030;53.912;15.214;2023-05-29T12:49:17;47.60;15.50
34815;DHT22;21030;53.912;15.214;2023-05-29T12:51:47;47.60;15.20
34815;DHT22;21030;53.912;15.214;2023-05-29T12:54:15;48.00;15.20
34815;DHT22;21030;53.912;15.214;2023-05-29T12:56:43;48.10;15.00
34815;DHT22;21030;53.912;15.214;2023-05-29T12:59:11;47.50;14.70
34815;DHT22;21030;53.912;15.214;2023-05-29T13:01:42;46.80;15.30
34815;DHT22;21030;53.912;15.214;2023-05-29T13:04:09;46.40;15.20
34815;DHT22;21030;53.912;15.214;2023-05-29T13:06:39;46.50;15.20
34815;DHT22;21030;53.912;15.214;2023-05-29T13:09:06;45.90;15.20
34815;DHT22;21030;53.912;15.214;2023-05-29T13:11:34;46.40;15.50
34815;DHT22;21030;53.912;15.214;2023-05-29T13:14:04;46.60;15.20
34815;DHT22;21030;53.912;15.214;2023-05-29T13:16:31;45.90;15.30
34815;DHT22;21030;53.912;15.214;2023-05-29T13:18:58;45.40;15.50
34815;DHT22;21030;53.912;15.214;2023-05-29T13:21:25;45.70;15.80
34815;DHT22;21030;53.912;15.214;2023-05-29T13:23:52;46.10;15.70
34815;DHT22;21030;53.912;15.214;2023-05-29T13:26:20;46.10;15.60
34815;DHT22;21030;53.912;15.214;2023-05-29T13:28:48;45.60;15.60
34815;DHT22;21030;53.912;15.214;2023-05-29T13:31:15;46.30;15.50
34815;DHT22;21030;53.912;15.214;2023-05-29T13:33:43;45.70;15.40
34815;DHT22;21030;53.912;15.214;2023-05-29T13:36:10;45.10;15.50
34815;DHT22;21030;53.912;15.214;2023-05-29T13:38:38;44.90;15.90
34815;DHT22;21030;53.912;15.214;2023-05-29T13:41:05;44.80;15.70
34815;DHT22;21030;53.912;15.214;2023-05-29T13:43:33;44.70;15.70
34815;DHT22;21030;53.912;15.214;2023-05-29T13:46:11;44.30;15.90
34815;DHT22;21030;53.912;15.214;2023-05-29T13:48:38;44.00;16.30
34815;DHT22;21030;53.912;15.214;2023-05-29T13:51:05;44.30;16.20
34815;DHT22;21030;53.912;15.214;2023-05-29T13:53:33;44.40;16.20
34815;DHT22;21030;53.912;15.214;2023-05-29T13:56:00;44.80;16.20
34815;DHT22;21030;53.912;15.214;2023-05-29T13:58:27;44.40;15.80
34815;DHT22;21030;53.912;15.214;2023-05-29T14:00:54;45.30;16.20
34815;DHT22;21030;53.912;15.214;2023-05-29T14:03:22;44.30;16.20
34815;DHT22;21030;53.912;15.214;2023-05-29T14:05:52;44.50;16.50
34815;DHT22;21030;53.912;15.214;2023-05-29T14:08:20;44.70;16.60
34815;DHT22;21030;53.912;15.214;2023-05-29T14:10:47;44.90;16.60
34815;DHT22;21030;53.912;15.214;2023-05-29T14:13:14;45.10;16.40
34815;DHT22;21030;53.912;15.214;2023-05-29T14:15:41;45.10;16.60
34815;DHT22;21030;53.912;15.214;2023-05-29T14:18:08;45.30;16.40
34815;DHT22;21030;53.912;15.214;2023-05-29T14:20:36;44.60;16.00
34815;DHT22;21030;53.912;15.214;2023-05-29T14:23:03;45.10;16.20
34815;DHT22;21030;53.912;15.214;2023-05-29T14:25:30;45.20;16.20
34815;DHT22;21030;53.912;15.214;2023-05-29T14:27:57;45.00;16.20
34815;DHT22;21030;53.912;15.214;2023-05-29T14:30:24;44.80;16.00
34815;DHT22;21030;53.912;15.214;2023-05-29T14:32:51;44.20;15.80
34815;DHT22;21030;53.912;15.214;2023-05-29T14:35:18;43.90;15.90
34815;DHT22;21030;53.912;15.214;2023-05-29T14:37:46;43.20;16.10
34815;DHT22;21030;53.912;15.214;2023-05-29T14:40:13;43.80;16.70
34815;DHT22;21030;53.912;15.214;2023-05-29T14:42:40;43.90;16.60
34815;DHT22;21030;53.912;15.214;2023-05-29T14:45:07;44.10;16.40
34815;DHT22;21030;53.912;15.214;2023-05-29T14:47:35;43.90;16.70
34815;DHT22;21030;53.912;15.214;2023-05-29T14:50:03;44.10;16.70
34815;DHT22;21030;53.912;15.214;2023-05-29T14:52:30;44.00;16.90
34815;DHT22;21030;53.912;15.214;2023-05-29T14:54:57;43.70;17.10
34815;DHT22;21030;53.912;15.214;2023-05-29T14:57:24;43.60;17.00
34815;DHT22;21030;53.912;15.214;2023-05-29T14:59:51;43.70;17.10
34815;DHT22;21030;53.912;15.214;2023-05-29T15:02:18;43.20;17.80
34815;DHT22;21030;53.912;15.214;2023-05-29T15:04:45;43.20;17.50
34815;DHT22;21030;53.912;15.214;2023-05-29T15:07:12;42.50;17.40
34815;DHT22;21030;53.912;15.214;2023-05-29T15:09:39;41.50;17.60
34815;DHT22;21030;53.912;15.214;2023-05-29T15:12:07;41.30;18.00
34815;DHT22;21030;53.912;15.214;2023-05-29T15:14:34;41.10;17.90
34815;DHT22;21030;53.912;15.214;2023-05-29T15:17:02;41.10;17.90
34815;DHT22;21030;53.912;15.214;2023-05-29T15:19:29;41.20;17.80
34815;DHT22;21030;53.912;15.214;2023-05-29T15:21:57;41.10;17.80
34815;DHT22;21030;53.912;15.214;2023-05-29T15:24:24;40.10;17.80
34815;DHT22;21030;53.912;15.214;2023-05-29T15:26:51;39.60;18.10
34815;DHT22;21030;53.912;15.214;2023-05-29T15:29:19;40.20;17.90
34815;DHT22;21030;53.912;15.214;2023-05-29T15:31:47;40.10;17.60
34815;DHT22;21030;53.912;15.214;2023-05-29T15:34:14;40.20;18.10
34815;DHT22;21030;53.912;15.214;2023-05-29T15:36:41;40.40;18.10
34815;DHT22;21030;53.912;15.214;2023-05-29T15:39:08;40.70;17.70
34815;DHT22;21030;53.912;15.214;2023-05-29T15:41:35;40.80;17.40
34815;DHT22;21030;53.912;15.214;2023-05-29T15:44:02;40.70;16.70
34815;DHT22;21030;53.912;15.214;2023-05-29T15:46:30;40.70;17.00
34815;DHT22;21030;53.912;15.214;2023-05-29T15:48:57;40.40;16.50
34815;DHT22;21030;53.912;15.214;2023-05-29T15:51:24;40.70;16.40
34815;DHT22;21030;53.912;15.214;2023-05-29T15:53:51;40.40;16.80
34815;DHT22;21030;53.912;15.214;2023-05-29T15:56:19;40.20;16.70